Time;durP1;ratioP1;P1;durP2;ratioP2;P2;SDS_P1;SDS_P2;PMS_P1;PMS_P2;Temp;Humidity;BMP_temperature;BMP_pressure;BME280_temperature;BME280_humidity;BME280_pressure;Samples;Min_cycle;Max_cycle;Signal;HPM_P1;HPM_P2
2022/05/11 00:00:39;;;;;;;;;9.75;9.75;;;;;21.68;45.26;101304.34;2388096;28;45977;-88
2022/05/11 00:01:51;;;;;;;;;10.00;10.00;;;;;21.67;45.57;101305.31;2394076;28;45240;-87
2022/05/11 00:03:02;;;;;;;;;12.75;10.00;;;;;21.65;45.90;101307.22;2393749;28;46628;-88
2022/05/11 00:04:13;;;;;;;;;9.75;8.25;;;;;21.64;45.22;101309.03;2384025;28;45312;-88
2022/05/11 00:05:24;;;;;;;;;10.00;9.00;;;;;21.63;45.72;101303.81;2390092;28;45346;-88
2022/05/11 00:06:36;;;;;;;;;10.25;9.25;;;;;21.59;45.91;101304.03;2388079;28;45436;-88
2022/05/11 00:07:48;;;;;;;;;9.75;9.50;;;;;21.57;45.63;101307.78;2385674;28;48098;-88
2022/05/11 00:08:58;;;;;;;;;8.25;8.25;;;;;21.56;45.67;101304.25;2395977;28;45505;-88
2022/05/11 00:10:12;;;;;;;;;10.25;10.00;;;;;21.54;46.24;101305.31;2392544;28;47261;-88
2022/05/11 00:11:26;;;;;;;;;10.25;9.00;;;;;21.51;45.94;101302.88;2386848;28;45172;-88
2022/05/11 00:12:38;;;;;;;;;9.00;9.00;;;;;21.51;46.37;101302.88;2385584;28;47258;-88
2022/05/11 00:13:48;;;;;;;;;8.00;7.50;;;;;21.46;46.63;101301.38;2396445;28;45253;-88
2022/05/11 00:14:58;;;;;;;;;9.75;9.00;;;;;21.46;46.40;101301.38;2392981;28;47014;-88
2022/05/11 00:16:09;;;;;;;;;8.75;8.75;;;;;21.44;46.73;101302.44;2394833;28;45271;-87
2022/05/11 00:17:19;;;;;;;;;10.50;9.25;;;;;21.42;46.38;101299.03;2392711;28;47912;-88
2022/05/11 00:18:29;;;;;;;;;9.75;9.00;;;;;21.42;46.33;101296.34;2396014;28;45176;-87
2022/05/11 00:19:40;;;;;;;;;10.00;9.25;;;;;21.40;46.30;101295.59;2402336;28;46149;-85
2022/05/11 00:20:50;;;;;;;;;9.00;9.00;;;;;21.37;46.25;101299.34;2403434;28;45203;-86
2022/05/11 00:22:00;;;;;;;;;12.00;10.25;;;;;21.36;46.90;101301.16;2395866;28;46079;-86
2022/05/11 00:23:11;;;;;;;;;9.75;8.75;;;;;21.33;46.64;101300.53;2393645;28;45197;-83
2022/05/11 00:24:21;;;;;;;;;10.50;10.25;;;;;21.32;46.18;101296.13;2401967;28;45350;-82
2022/05/11 00:25:32;;;;;;;;;12.50;9.00;;;;;21.31;46.51;101297.13;2402898;28;45477;-82
2022/05/11 00:26:42;;;;;;;;;10.00;8.25;;;;;21.29;46.49;101291.88;2396511;28;47038;-82
2022/05/11 00:27:55;;;;;;;;;9.75;9.75;;;;;21.28;46.96;101292.84;2393338;28;45315;-82
2022/05/11 00:29:05;;;;;;;;;10.00;8.75;;;;;21.27;47.46;101284.91;2393785;28;45684;-82
2022/05/11 00:30:16;;;;;;;;;11.25;8.75;;;;;21.25;46.98;101290.38;2394173;28;45716;-85
2022/05/11 00:31:26;;;;;;;;;11.00;11.00;;;;;21.21;47.21;101287.06;2395631;28;45390;-85
2022/05/11 00:32:37;;;;;;;;;9.75;9.75;;;;;21.21;47.19;101286.22;2403197;28;45289;-86
2022/05/11 00:33:48;;;;;;;;;9.75;9.75;;;;;21.18;46.77;101281.94;2394539;28;48554;-86
2022/05/11 00:34:58;;;;;;;;;11.50;10.00;;;;;21.16;47.11;101278.53;2395884;28;45192;-86
2022/05/11 00:36:13;;;;;;;;;9.25;8.25;;;;;21.14;47.10;101280.41;2392887;28;47415;-84
2022/05/11 00:37:24;;;;;;;;;14.00;9.50;;;;;21.10;47.59;101274.44;2377700;28;45305;-86
2022/05/11 00:38:35;;;;;;;;;9.00;9.00;;;;;21.09;47.18;101278.06;2388687;28;47064;-86
2022/05/11 00:39:46;;;;;;;;;13.25;11.50;;;;;21.07;47.51;101269.31;2390900;28;45480;-86
2022/05/11 00:40:59;;;;;;;;;10.25;9.00;;;;;21.05;47.68;101271.25;2395967;28;46421;-86
2022/05/11 00:42:10;;;;;;;;;10.00;10.00;;;;;21.03;47.66;101265.16;2392884;28;45207;-85
2022/05/11 00:43:29;;;;;;;;;8.25;7.50;;;;;21.02;47.60;101266.09;2395260;28;45365;-86
2022/05/11 00:44:39;;;;;;;;;8.50;8.50;;;;;20.97;47.69;101257.50;2390892;28;45244;-86
2022/05/11 00:45:50;;;;;;;;;11.25;8.25;;;;;20.94;47.97;101258.59;2376860;28;47074;-86
2022/05/11 00:47:10;;;;;;;;;10.25;10.25;;;;;20.93;47.97;101262.22;2386538;28;45441;-86
2022/05/11 00:50:04;;;;;;;;;10.00;8.75;;;;;20.84;47.92;101247.69;2398289;28;45322;-87
2022/05/11 00:51:15;;;;;;;;;12.75;9.00;;;;;20.83;48.27;101261.16;2389583;28;47467;-87
2022/05/11 00:52:41;;;;;;;;;9.75;8.75;;;;;20.77;48.10;101257.94;2386251;28;45381;-87
2022/05/11 00:53:54;;;;;;;;;7.75;7.50;;;;;20.75;48.46;101253.66;2393660;28;45556;-86
2022/05/11 00:55:13;;;;;;;;;9.00;9.00;;;;;20.74;48.49;101246.63;2400965;28;45435;-87
2022/05/11 00:56:24;;;;;;;;;9.75;9.75;;;;;20.71;48.60;101246.81;2391993;28;46868;-87
2022/05/11 00:57:47;;;;;;;;;9.00;8.50;;;;;20.69;48.03;101247.78;2395785;28;44783;-86
2022/05/11 00:59:06;;;;;;;;;7.50;7.50;;;;;20.63;48.36;101240.19;2403035;28;45627;-84
2022/05/11 01:00:21;;;;;;;;;7.25;7.00;;;;;20.62;48.54;101251.00;2392785;28;45268;-84
2022/05/11 01:01:31;;;;;;;;;9.25;9.25;;;;;20.58;48.64;101247.66;2393896;28;46701;-84
2022/05/11 01:02:44;;;;;;;;;7.25;7.25;;;;;20.57;48.73;101245.94;2402971;28;45408;-84
2022/05/11 01:04:08;;;;;;;;;7.25;7.25;;;;;20.57;49.00;101245.94;2392772;28;47265;-84
2022/05/11 01:05:19;;;;;;;;;8.00;8.00;;;;;20.52;48.78;101237.41;2397890;28;45315;-84
2022/05/11 01:06:31;;;;;;;;;7.75;7.25;;;;;20.53;48.30;101239.09;2402748;28;46682;-84
2022/05/11 01:07:42;;;;;;;;;8.00;8.00;;;;;20.50;49.20;101242.84;2392348;28;45240;-84
2022/05/11 01:08:53;;;;;;;;;7.50;7.50;;;;;20.48;48.92;101244.75;2395291;28;47730;-85
2022/05/11 01:10:06;;;;;;;;;8.00;8.00;;;;;20.48;49.23;101242.09;2401821;28;45322;-85
2022/05/11 01:11:17;;;;;;;;;14.25;9.50;;;;;20.44;49.04;101232.59;2402281;28;47509;-85
2022/05/11 01:12:35;;;;;;;;;10.25;9.00;;;;;20.43;48.90;101239.72;2403052;28;44737;-85
2022/05/11 01:13:46;;;;;;;;;9.50;9.50;;;;;20.41;49.55;101235.44;2398918;28;45290;-83
2022/05/11 01:15:00;;;;;;;;;11.75;8.75;;;;;20.41;49.22;101236.31;2402563;28;44562;-83
2022/05/11 01:16:11;;;;;;;;;9.00;7.25;;;;;20.37;49.47;101224.13;2393433;28;45665;-83
2022/05/11 01:17:24;;;;;;;;;10.75;7.75;;;;;20.34;49.27;101227.88;2390062;28;45220;-83
2022/05/11 01:18:38;;;;;;;;;9.50;8.50;;;;;20.33;49.49;101225.28;2383245;28;46757;-83
2022/05/11 01:19:48;;;;;;;;;7.25;6.50;;;;;20.31;49.69;101216.53;2377153;28;44687;-83
2022/05/11 01:21:03;;;;;;;;;10.00;7.50;;;;;20.27;49.41;101218.56;2388551;28;45575;-83
2022/05/11 01:22:40;;;;;;;;;10.00;8.25;;;;;20.28;49.75;101228.25;2396671;28;44818;-83
2022/05/11 01:24:01;;;;;;;;;7.50;7.50;;;;;20.23;49.40;101223.25;2364458;28;47340;-86
2022/05/11 01:25:14;;;;;;;;;13.50;10.00;;;;;20.21;49.78;101219.81;2396227;28;45302;-89
2022/05/11 01:26:24;;;;;;;;;9.25;9.25;;;;;20.21;49.61;101225.16;2401960;28;46563;-88
2022/05/11 01:27:41;;;;;;;;;8.00;8.00;;;;;20.18;50.21;101219.16;2401745;28;44589;-88
2022/05/11 01:28:54;;;;;;;;;8.25;8.25;;;;;20.18;49.69;101221.81;2383171;28;47872;-88
2022/05/11 01:30:24;;;;;;;;;11.50;8.00;;;;;20.16;50.32;101215.75;2382523;28;44810;-87
2022/05/11 01:31:35;;;;;;;;;7.50;7.00;;;;;20.13;50.44;101211.47;2388104;28;48290;-87
2022/05/11 01:32:49;;;;;;;;;10.00;9.00;;;;;20.11;50.15;101216.91;2392879;28;44691;-87
2022/05/11 01:33:59;;;;;;;;;9.50;8.00;;;;;20.10;50.17;101217.00;2399704;28;47214;-88
2022/05/11 01:35:34;;;;;;;;;8.00;8.00;;;;;20.09;50.23;101220.59;2385953;28;45204;-87
2022/05/11 01:36:49;;;;;;;;;9.50;6.50;;;;;20.06;50.72;101212.78;2398937;28;46197;-88
2022/05/11 01:38:21;;;;;;;;;6.50;6.25;;;;;20.04;50.42;101218.25;2401031;28;45275;-87
2022/05/11 01:39:31;;;;;;;;;9.75;9.25;;;;;20.00;51.02;101214.91;2396065;28;45381;-87
2022/05/11 01:40:42;;;;;;;;;9.00;8.50;;;;;19.99;50.87;101215.00;2401097;28;45315;-87
2022/05/11 01:41:54;;;;;;;;;10.00;9.00;;;;;19.96;50.80;101216.06;2402484;28;45501;-86
2022/05/11 01:43:05;;;;;;;;;9.25;9.25;;;;;19.94;50.89;101210.00;2392216;28;44775;-87
2022/05/11 01:44:17;;;;;;;;;7.75;7.75;;;;;19.95;50.88;101213.50;2385615;28;48400;-87
2022/05/11 01:45:27;;;;;;;;;7.25;7.25;;;;;19.93;50.97;101223.44;2395688;28;44639;-87
2022/05/11 01:46:43;;;;;;;;;9.00;9.00;;;;;19.92;50.84;101219.03;2397857;28;46280;-87
2022/05/11 01:47:55;;;;;;;;;9.00;8.00;;;;;19.91;50.71;101223.50;2393458;28;45365;-87
2022/05/11 01:49:06;;;;;;;;;7.00;4.75;;;;;19.87;50.31;101214.00;2382998;28;47603;-87
2022/05/11 01:50:17;;;;;;;;;8.00;8.00;;;;;19.87;50.24;101216.69;2382938;28;45474;-86
2022/05/11 01:51:27;;;;;;;;;10.50;8.25;;;;;19.82;50.56;101211.66;2390402;28;46290;-86
2022/05/11 01:52:37;;;;;;;;;10.75;8.25;;;;;19.83;50.52;101217.84;2394023;28;45334;-86
2022/05/11 01:53:48;;;;;;;;;9.75;9.00;;;;;19.83;51.09;101220.50;2393045;28;46293;-87
2022/05/11 01:54:59;;;;;;;;;10.25;9.00;;;;;19.82;50.98;101213.44;2393166;28;44590;-87
2022/05/11 01:56:09;;;;;;;;;7.00;7.00;;;;;19.79;50.96;101215.38;2383126;28;47192;-87
2022/05/11 01:57:19;;;;;;;;;9.25;8.00;;;;;19.79;50.96;101220.69;2392683;28;45299;-87
2022/05/11 01:58:30;;;;;;;;;9.75;9.50;;;;;19.77;51.26;101217.28;2402544;28;45236;-87
2022/05/11 01:59:40;;;;;;;;;10.50;9.25;;;;;19.77;51.27;101219.94;2402720;28;45171;-87
2022/05/11 02:00:52;;;;;;;;;9.25;9.25;;;;;19.77;51.19;101222.63;2402056;28;46347;-87
2022/05/11 02:02:03;;;;;;;;;10.00;8.00;;;;;19.75;51.11;101224.53;2402665;28;45386;-87
2022/05/11 02:03:17;;;;;;;;;7.25;7.25;;;;;19.73;51.46;101218.41;2400420;28;46262;-87
2022/05/11 02:08:56;;;;;;;;;11.25;7.75;;;;;19.66;51.50;101219.78;2401491;28;45796;-86
2022/05/11 02:10:07;;;;;;;;;8.50;8.50;;;;;19.62;51.88;101216.47;2386367;28;45251;-87
2022/05/11 02:11:18;;;;;;;;;10.50;8.00;;;;;19.61;51.73;101213.88;2388714;28;45253;-84
2022/05/11 02:12:28;;;;;;;;;8.75;8.75;;;;;19.60;51.81;101217.50;2392553;28;45330;-84
2022/05/11 02:13:39;;;;;;;;;10.75;10.25;;;;;19.58;51.58;101220.28;2385381;28;47984;-84
2022/05/11 02:14:50;;;;;;;;;3.00;3.00;;;;;19.56;52.01;101220.38;2395411;28;44612;-85
2022/05/11 02:16:01;;;;;;;;;8.00;7.25;;;;;19.54;52.22;101216.94;2402323;28;45452;-85
2022/05/11 02:17:12;;;;;;;;;9.00;9.00;;;;;19.54;51.82;101216.94;2401105;28;45171;-83
2022/05/11 02:18:22;;;;;;;;;9.50;8.75;;;;;19.51;52.27;101214.47;2391546;28;47611;-83
2022/05/11 02:19:33;;;;;;;;;6.00;6.00;;;;;19.49;52.20;101210.19;2385365;28;44605;-83
2022/05/11 02:20:43;;;;;;;;;10.50;9.00;;;;;19.48;52.07;101212.03;2385790;28;45460;-82
2022/05/11 02:21:54;;;;;;;;;12.50;10.75;;;;;19.45;51.94;101209.53;2383099;28;44720;-84
2022/05/11 02:23:04;;;;;;;;;10.50;10.50;;;;;19.45;52.08;101206.88;2382543;28;47709;-84
2022/05/11 02:24:16;;;;;;;;;10.25;7.50;;;;;19.43;52.11;101209.63;2386146;28;45283;-84
2022/05/11 02:25:26;;;;;;;;;8.25;8.00;;;;;19.41;52.14;101213.38;2395021;28;45382;-84
2022/05/11 02:26:37;;;;;;;;;9.00;9.00;;;;;19.39;52.37;101208.09;2392135;28;45366;-84
2022/05/11 02:27:49;;;;;;;;;8.00;7.75;;;;;19.37;52.30;101207.34;2392922;28;45467;-84
2022/05/11 02:29:00;;;;;;;;;11.75;8.25;;;;;19.38;52.32;101213.53;2391668;28;44679;-84
2022/05/11 02:30:15;;;;;;;;;12.00;9.25;;;;;19.36;52.89;101207.47;2391382;28;47445;-84
2022/05/11 02:31:25;;;;;;;;;10.50;9.50;;;;;19.35;52.33;101206.59;2392721;28;45267;-84
2022/05/11 02:32:36;;;;;;;;;9.75;8.75;;;;;19.32;52.53;101210.31;2390284;28;47103;-84
2022/05/11 02:33:46;;;;;;;;;8.00;7.75;;;;;19.31;52.19;101208.59;2383453;28;45352;-84
2022/05/11 02:35:12;;;;;;;;;9.00;7.00;;;;;19.29;52.56;101209.63;2376867;28;48307;-84
2022/05/11 02:36:23;;;;;;;;;8.25;8.25;;;;;19.28;52.85;101211.47;2398421;28;45458;-84
2022/05/11 02:37:33;;;;;;;;;9.50;8.00;;;;;19.26;52.87;101212.50;2403725;28;45313;-84
2022/05/11 02:38:44;;;;;;;;;7.00;7.00;;;;;19.25;52.86;101208.13;2392319;28;45438;-83
2022/05/11 02:39:54;;;;;;;;;10.50;9.75;;;;;19.24;52.90;101201.94;2396351;28;46188;-83
2022/05/11 02:41:05;;;;;;;;;9.75;7.25;;;;;19.22;53.04;101201.19;2402464;28;45302;-85
2022/05/11 02:42:18;;;;;;;;;7.75;7.75;;;;;19.23;52.99;101208.22;2394539;28;45341;-85
2022/05/11 02:43:29;;;;;;;;;10.25;8.25;;;;;19.20;52.90;101198.63;2392178;28;45252;-85
2022/05/11 02:44:39;;;;;;;;;10.25;8.25;;;;;19.20;52.89;101193.28;2393885;28;46217;-84
2022/05/11 02:45:50;;;;;;;;;7.50;7.25;;;;;19.19;52.68;101202.22;2401870;28;45153;-85
2022/05/11 02:47:01;;;;;;;;;11.00;10.00;;;;;19.16;53.30;101197.03;2403615;28;46356;-85
2022/05/11 02:48:14;;;;;;;;;8.50;8.50;;;;;19.14;52.95;101198.97;2393874;28;45283;-85
2022/05/11 02:49:24;;;;;;;;;9.25;7.75;;;;;19.14;52.89;101195.47;2396235;28;47195;-85
2022/05/11 02:50:41;;;;;;;;;7.00;7.00;;;;;19.12;53.64;101196.41;2402423;28;45341;-85
2022/05/11 02:51:52;;;;;;;;;11.25;9.00;;;;;19.10;53.05;101195.66;2394104;28;45580;-85
2022/05/11 02:53:07;;;;;;;;;11.25;8.75;;;;;19.08;53.11;101192.22;2394272;28;45362;-84
2022/05/11 02:54:18;;;;;;;;;10.50;8.25;;;;;19.07;53.25;101194.97;2393148;28;47279;-85
2022/05/11 02:55:29;;;;;;;;;8.00;8.00;;;;;19.04;53.72;101192.50;2390463;28;45220;-85
2022/05/11 02:56:41;;;;;;;;;9.00;8.50;;;;;19.03;53.32;101194.31;2387318;28;45443;-85
2022/05/11 02:57:52;;;;;;;;;6.50;6.50;;;;;19.03;53.71;101191.66;2394540;28;45272;-84
2022/05/11 02:59:03;;;;;;;;;9.25;9.00;;;;;19.03;53.31;101193.44;2402681;28;46221;-84
2022/05/11 03:00:18;;;;;;;;;9.50;7.50;;;;;19.00;53.55;101190.03;2403853;28;45302;-85
2022/05/11 03:01:28;;;;;;;;;12.25;9.75;;;;;18.98;53.59;101194.59;2391055;28;48232;-83
2022/05/11 03:02:38;;;;;;;;;8.75;8.75;;;;;18.99;54.04;101190.09;2377896;28;45324;-83
2022/05/11 03:03:49;;;;;;;;;11.50;9.25;;;;;18.97;53.46;101186.69;2395020;28;46289;-83
2022/05/11 03:04:59;;;;;;;;;8.25;7.00;;;;;18.96;54.08;101185.00;2399571;28;44618;-83
2022/05/11 03:06:09;;;;;;;;;9.00;9.00;;;;;18.94;53.68;101184.22;2403691;28;45255;-83
2022/05/11 03:07:20;;;;;;;;;7.25;6.50;;;;;18.95;53.74;101186.78;2401474;28;45662;-85
2022/05/11 03:08:31;;;;;;;;;12.75;10.25;;;;;18.92;53.54;101186.97;2394216;28;45267;-84
2022/05/11 03:09:42;;;;;;;;;8.50;8.50;;;;;18.92;53.68;101189.63;2398821;28;45333;-85
2022/05/11 03:10:52;;;;;;;;;7.75;7.25;;;;;18.89;53.46;101188.00;2403509;28;46220;-84
2022/05/11 03:12:03;;;;;;;;;11.25;10.00;;;;;18.88;53.71;101190.78;2393785;28;44733;-84
2022/05/11 03:13:14;;;;;;;;;8.00;6.75;;;;;18.89;54.06;101193.34;2389442;28;45448;-84
2022/05/11 03:14:24;;;;;;;;;11.00;9.75;;;;;18.87;54.12;101195.25;2384229;28;45374;-84
2022/05/11 03:15:36;;;;;;;;;9.75;8.00;;;;;18.88;54.26;101190.78;2391595;28;46237;-85
2022/05/11 03:16:46;;;;;;;;;12.25;9.75;;;;;18.86;54.43;101198.88;2393298;28;45499;-86
2022/05/11 03:17:57;;;;;;;;;10.25;8.25;;;;;18.84;54.09;101197.25;2386499;28;46722;-84
2022/05/11 03:19:07;;;;;;;;;9.75;9.50;;;;;18.83;53.89;101199.06;2395260;28;45279;-83
2022/05/11 03:20:21;;;;;;;;;8.75;8.00;;;;;18.83;54.36;101196.41;2403735;28;45236;-85
2022/05/11 03:21:32;;;;;;;;;8.25;7.50;;;;;18.83;53.91;101201.72;2403712;28;45297;-84
2022/05/11 03:22:43;;;;;;;;;10.75;10.25;;;;;18.80;53.66;101191.25;2403335;28;46261;-86
2022/05/11 03:23:54;;;;;;;;;10.25;8.00;;;;;18.79;54.25;101189.56;2403681;28;45234;-85
2022/05/11 03:25:05;;;;;;;;;12.25;9.50;;;;;18.79;54.06;101194.88;2402170;28;48115;-85
2022/05/11 03:26:16;;;;;;;;;12.25;9.00;;;;;18.76;54.80;101190.59;2396463;28;45192;-85
2022/05/11 03:27:27;;;;;;;;;10.50;9.75;;;;;18.75;54.50;101185.34;2402818;28;46273;-84
2022/05/11 03:28:38;;;;;;;;;9.50;9.25;;;;;18.74;54.20;101192.47;2390503;28;45179;-84
2022/05/11 03:29:48;;;;;;;;;9.75;8.25;;;;;18.74;54.54;101192.47;2390100;28;46499;-84
2022/05/11 03:30:59;;;;;;;;;10.00;8.25;;;;;18.72;54.65;101189.03;2394156;28;45236;-84
2022/05/11 03:35:10;;;;;;;;;10.75;10.25;;;;;18.67;54.61;101189.34;2394288;28;45772;-84
2022/05/11 03:36:21;;;;;;;;;8.00;8.00;;;;;18.64;54.64;101192.16;2400658;28;44624;-84
2022/05/11 03:37:31;;;;;;;;;9.25;9.25;;;;;18.65;54.46;101193.91;2393075;28;46998;-84
2022/05/11 03:38:41;;;;;;;;;9.25;9.25;;;;;18.65;54.73;101193.91;2396081;28;45222;-84
2022/05/11 03:39:52;;;;;;;;;11.75;9.75;;;;;18.63;54.10;101187.81;2400848;28;45300;-84
2022/05/11 03:41:03;;;;;;;;;10.50;9.50;;;;;18.63;54.26;101193.13;2394274;28;45409;-84
2022/05/11 03:42:16;;;;;;;;;9.50;9.50;;;;;18.61;54.41;101189.72;2394198;28;45285;-84
2022/05/11 03:43:26;;;;;;;;;11.25;10.00;;;;;18.61;54.46;101188.84;2394214;28;44607;-85
2022/05/11 03:44:37;;;;;;;;;8.00;8.00;;;;;18.59;54.49;101194.28;2384163;28;47980;-85
2022/05/11 03:45:47;;;;;;;;;10.25;7.75;;;;;18.59;54.41;101188.09;2377544;28;44646;-86
2022/05/11 03:46:58;;;;;;;;;9.25;9.25;;;;;18.58;54.27;101191.69;2376826;28;48226;-86
2022/05/11 03:48:08;;;;;;;;;12.50;10.75;;;;;18.55;54.45;101179.41;2386869;28;45424;-85
2022/05/11 03:49:19;;;;;;;;;10.25;9.50;;;;;18.52;54.86;101185.78;2394451;28;45228;-86
2022/05/11 03:50:29;;;;;;;;;9.75;9.25;;;;;18.53;54.78;101181.31;2403519;28;45212;-85
2022/05/11 03:51:40;;;;;;;;;10.00;9.00;;;;;18.51;55.20;101180.56;2396097;28;45403;-84
2022/05/11 03:52:52;;;;;;;;;11.50;10.75;;;;;18.50;55.10;101181.50;2398958;28;45261;-83
2022/05/11 03:54:03;;;;;;;;;10.50;8.25;;;;;18.49;54.63;101179.81;2393175;28;47014;-84
2022/05/11 03:55:13;;;;;;;;;11.25;10.50;;;;;18.48;55.12;101183.41;2396185;28;44681;-83
2022/05/11 03:56:24;;;;;;;;;9.50;9.25;;;;;18.48;54.87;101180.72;2396925;28;45420;-83
2022/05/11 03:57:37;;;;;;;;;11.50;10.25;;;;;18.47;54.82;101185.19;2383937;28;45283;-83
2022/05/11 03:58:47;;;;;;;;;13.50;11.25;;;;;18.44;54.99;101177.41;2387303;28;45211;-85
2022/05/11 03:59:58;;;;;;;;;11.75;10.25;;;;;18.46;55.08;101182.63;2392047;28;45303;-85
2022/05/11 04:01:08;;;;;;;;;11.50;11.00;;;;;18.42;55.15;101182.81;2393851;28;45234;-85
2022/05/11 04:02:18;;;;;;;;;15.25;12.00;;;;;18.41;54.88;101181.13;2394048;28;45292;-85
2022/05/11 04:03:29;;;;;;;;;9.50;9.50;;;;;18.40;55.36;101190.03;2393791;28;45208;-85
2022/05/11 04:04:39;;;;;;;;;9.25;8.00;;;;;18.40;54.97;101182.06;2383889;28;45308;-85
2022/05/11 04:05:50;;;;;;;;;10.75;9.50;;;;;18.38;55.62;101178.63;2377877;28;47037;-85
2022/05/11 04:07:00;;;;;;;;;10.25;10.25;;;;;18.38;55.17;101183.94;2393603;28;45304;-85
2022/05/11 04:08:11;;;;;;;;;10.25;9.00;;;;;18.38;55.63;101188.41;2400373;28;45480;-85
2022/05/11 04:09:21;;;;;;;;;13.25;12.50;;;;;18.37;55.33;101189.38;2401974;28;45497;-85
2022/05/11 04:10:31;;;;;;;;;10.50;10.50;;;;;18.36;55.32;101182.31;2402715;28;45285;-85
2022/05/11 04:11:42;;;;;;;;;14.50;10.75;;;;;18.35;55.34;101186.78;2402559;28;45389;-85
2022/05/11 04:12:52;;;;;;;;;11.00;10.25;;;;;18.34;55.47;101185.09;2403280;28;45380;-85
2022/05/11 04:14:02;;;;;;;;;9.50;9.50;;;;;18.33;55.44;101189.53;2394828;28;45425;-85
2022/05/11 04:15:13;;;;;;;;;12.50;10.25;;;;;18.33;55.51;101186.03;2393646;28;45384;-85
2022/05/11 04:16:24;;;;;;;;;13.50;11.50;;;;;18.33;55.40;101189.53;2393829;28;45343;-85
2022/05/11 04:17:35;;;;;;;;;12.25;11.25;;;;;18.32;55.73;101190.47;2383742;28;47999;-85
2022/05/11 04:18:46;;;;;;;;;14.25;10.25;;;;;18.31;55.40;101185.25;2386374;28;45461;-85
2022/05/11 04:19:57;;;;;;;;;10.00;9.50;;;;;18.29;55.45;101195.16;2387757;28;47444;-85
2022/05/11 04:21:07;;;;;;;;;11.00;11.00;;;;;18.31;55.66;101190.59;2396014;28;44608;-84
2022/05/11 04:22:17;;;;;;;;;10.50;9.75;;;;;18.28;55.44;101196.06;2392824;28;46817;-84
2022/05/11 04:23:28;;;;;;;;;12.25;11.25;;;;;18.27;55.72;101191.72;2384671;28;45322;-84
2022/05/11 04:24:38;;;;;;;;;11.75;10.50;;;;;18.27;55.61;101189.06;2376954;28;47444;-82
2022/05/11 04:25:48;;;;;;;;;10.75;10.75;;;;;18.29;55.77;101192.47;2393739;28;45290;-81
2022/05/11 04:27:00;;;;;;;;;15.50;12.50;;;;;18.26;55.81;101190.84;2392488;28;47826;-84
2022/05/11 04:28:12;;;;;;;;;8.50;8.50;;;;;18.26;55.43;101195.31;2386232;28;45297;-83
2022/05/11 04:29:22;;;;;;;;;11.50;10.25;;;;;18.25;55.68;101193.63;2385310;28;47081;-84
2022/05/11 04:30:33;;;;;;;;;12.00;10.25;;;;;18.21;55.52;101188.47;2395503;28;44703;-84
2022/05/11 04:31:44;;;;;;;;;11.25;10.25;;;;;18.21;55.61;101196.44;2390113;28;47909;-85
2022/05/11 04:32:55;;;;;;;;;12.75;12.00;;;;;18.20;55.68;101194.72;2387304;28;45309;-85
2022/05/11 04:34:05;;;;;;;;;12.25;10.00;;;;;18.21;56.13;101195.59;2383571;28;48171;-86
2022/05/11 04:35:15;;;;;;;;;12.00;11.00;;;;;18.21;56.11;101201.78;2382201;28;45529;-85
2022/05/11 04:36:26;;;;;;;;;10.75;10.50;;;;;18.20;56.04;101199.19;2395471;28;45604;-85
2022/05/11 04:37:36;;;;;;;;;12.75;12.25;;;;;18.20;55.81;101197.38;2402888;28;44672;-85
2022/05/11 04:38:47;;;;;;;;;13.75;12.50;;;;;18.18;55.97;101196.59;2392821;28;48103;-84
2022/05/11 04:39:57;;;;;;;;;13.25;12.00;;;;;18.19;56.05;101200.13;2387295;28;44807;-83
2022/05/11 04:41:07;;;;;;;;;15.00;13.00;;;;;18.19;56.22;101197.44;2395686;28;45512;-83
2022/05/11 04:42:18;;;;;;;;;13.50;12.75;;;;;18.18;56.27;101198.38;2401910;28;45250;-84
2022/05/11 04:43:28;;;;;;;;;13.50;12.25;;;;;18.14;56.34;101195.06;2393651;28;45525;-84
2022/05/11 04:44:39;;;;;;;;;10.75;9.75;;;;;18.15;56.18;101190.59;2393587;28;44594;-84
2022/05/11 04:45:49;;;;;;;;;14.75;13.75;;;;;18.17;56.40;101197.56;2393522;28;46459;-83
2022/05/11 04:47:08;;;;;;;;;13.50;12.75;;;;;18.11;56.36;101189.91;2383628;28;44568;-83
2022/05/11 04:48:18;;;;;;;;;16.00;15.75;;;;;18.13;56.50;101197.78;2387801;28;46522;-83
2022/05/11 04:49:29;;;;;;;;;11.25;11.00;;;;;18.12;56.37;101196.97;2394932;28;44648;-83
2022/05/11 04:50:44;;;;;;;;;14.50;13.50;;;;;18.11;56.25;101195.22;2393509;28;45381;-83
2022/05/11 04:52:07;;;;;;;;;11.75;11.25;;;;;18.11;56.15;101189.91;2393609;28;45416;-83
2022/05/11 04:53:18;;;;;;;;;9.25;8.75;;;;;18.13;55.99;101197.78;2393363;28;45339;-83
2022/05/11 04:54:29;;;;;;;;;15.75;13.25;;;;;18.10;56.34;101190.84;2394676;28;44644;-83
2022/05/11 04:55:40;;;;;;;;;13.00;11.25;;;;;18.13;56.20;101192.47;2393428;28;45258;-83
2022/05/11 04:56:50;;;;;;;;;16.25;12.50;;;;;18.12;56.61;101191.63;2393625;28;45229;-83
2022/05/11 04:58:01;;;;;;;;;13.25;13.25;;;;;18.11;56.37;101184.59;2393405;28;46392;-83
2022/05/11 04:59:13;;;;;;;;;13.75;13.00;;;;;18.13;56.79;101190.69;2393600;28;45134;-83
2022/05/11 05:00:25;;;;;;;;;16.25;13.25;;;;;18.13;56.76;101188.00;2386123;28;46318;-83
2022/05/11 05:01:36;;;;;;;;;14.00;13.00;;;;;18.14;56.15;101189.75;2383641;28;45445;-83
2022/05/11 05:02:46;;;;;;;;;16.75;14.25;;;;;18.14;56.40;101189.75;2386270;28;45468;-83
2022/05/11 05:03:56;;;;;;;;;13.75;13.00;;;;;18.15;56.39;101195.94;2389450;28;45461;-83
2022/05/11 05:05:10;;;;;;;;;19.50;15.75;;;;;18.14;56.49;101192.41;2385635;28;46271;-84
2022/05/11 05:06:20;;;;;;;;;16.25;14.50;;;;;18.15;56.68;101193.28;2396255;28;45201;-85
2022/05/11 05:07:34;;;;;;;;;15.75;13.00;;;;;18.14;56.62;101187.09;2393941;28;45377;-86
2022/05/11 05:08:44;;;;;;;;;17.75;15.50;;;;;18.15;56.49;101188.78;2385292;28;45377;-84
2022/05/11 05:09:55;;;;;;;;;18.75;14.75;;;;;18.15;56.16;101191.44;2395352;28;46510;-85
2022/05/11 05:11:05;;;;;;;;;16.50;13.75;;;;;18.19;56.67;101192.13;2402725;28;44632;-84
2022/05/11 05:12:15;;;;;;;;;13.25;12.75;;;;;18.19;56.39;101197.44;2399468;28;45483;-84
2022/05/11 05:13:26;;;;;;;;;19.25;18.00;;;;;18.19;56.35;101193.03;2399423;28;45321;-84
2022/05/11 05:14:36;;;;;;;;;13.75;12.75;;;;;18.20;56.49;101185.88;2402238;28;45401;-84
2022/05/11 05:15:55;;;;;;;;;15.50;13.75;;;;;18.20;56.86;101197.38;2402037;28;45345;-85
2022/05/11 05:17:08;;;;;;;;;10.50;10.50;;;;;18.21;56.70;101192.94;2402946;28;45346;-85
2022/05/11 05:18:18;;;;;;;;;19.25;14.25;;;;;18.21;56.34;101191.13;2394287;28;45275;-84
2022/05/11 05:19:29;;;;;;;;;15.75;15.50;;;;;18.24;56.41;101189.22;2392758;28;46237;-84
2022/05/11 05:20:40;;;;;;;;;19.00;16.25;;;;;18.22;55.85;101187.50;2383531;28;45301;-84
2022/05/11 05:21:50;;;;;;;;;16.75;15.75;;;;;18.25;56.43;101188.28;2386137;28;45474;-85
2022/05/11 05:23:00;;;;;;;;;11.25;11.25;;;;;18.23;56.00;101180.38;2383163;28;45252;-84
2022/05/11 05:24:11;;;;;;;;;14.75;13.50;;;;;18.24;55.89;101187.44;2392710;28;46525;-84
2022/05/11 05:25:21;;;;;;;;;14.25;13.00;;;;;18.26;55.95;101184.69;2394232;28;45390;-84
2022/05/11 05:26:31;;;;;;;;;14.75;12.75;;;;;18.28;55.81;101188.09;2383357;28;46945;-85
2022/05/11 05:27:42;;;;;;;;;17.25;14.50;;;;;18.29;55.69;101182.69;2379002;28;45391;-85
2022/05/11 05:31:50;;;;;;;;;15.50;14.00;;;;;18.31;55.90;101180.81;2393424;28;45179;-85
2022/05/11 05:33:00;;;;;;;;;14.75;14.00;;;;;18.34;56.08;101185.09;2389373;28;45241;-84
2022/05/11 05:34:11;;;;;;;;;14.25;12.25;;;;;18.35;55.73;101192.09;2400173;28;46522;-85
2022/05/11 05:35:21;;;;;;;;;14.00;13.00;;;;;18.36;55.73;101191.16;2402734;28;44650;-84
2022/05/11 05:36:38;;;;;;;;;13.50;13.50;;;;;18.37;55.98;101190.22;2402707;28;46177;-85
2022/05/11 05:37:48;;;;;;;;;16.25;14.75;;;;;18.38;55.47;101191.94;2392425;28;45179;-84
2022/05/11 05:38:59;;;;;;;;;15.50;13.00;;;;;18.41;55.50;101191.75;2385112;28;46637;-85
2022/05/11 05:40:10;;;;;;;;;16.50;13.00;;;;;18.43;55.38;101189.00;2395043;28;44650;-84
2022/05/11 05:41:21;;;;;;;;;13.25;12.25;;;;;18.43;55.31;101192.53;2401882;28;48363;-85
2022/05/11 05:42:31;;;;;;;;;13.75;13.75;;;;;18.43;55.21;101187.19;2396582;28;44779;-85